Time;durP1;ratioP1;P1;durP2;ratioP2;P2;SDS_P1;SDS_P2;PMS_P1;PMS_P2;Temp;Humidity;BMP_temperature;BMP_pressure;BME280_temperature;BME280_humidity;BME280_pressure;Samples;Min_cycle;Max_cycle;Signal;HPM_P1;HPM_P2
2022/09/07 00:00:43;;;;;;;10.13;8.52;;;;;;;14.45;87.44;100589.31;5037442;28;20040;-75
2022/09/07 00:03:09;;;;;;;10.05;8.98;;;;;;;14.45;87.92;100589.31;5043771;28;20040;-75
2022/09/07 00:05:43;;;;;;;13.38;10.35;;;;;;;14.43;87.72;100588.44;5040414;28;20044;-75
2022/09/07 00:08:09;;;;;;;16.75;9.52;;;;;;;14.41;88.07;100590.28;5042101;28;20033;-75
2022/09/07 00:10:34;;;;;;;13.02;9.68;;;;;;;14.38;88.04;100590.38;5042806;28;20037;-75
2022/09/07 00:12:59;;;;;;;10.82;8.90;;;;;;;14.40;87.99;100583.22;5039838;28;20049;-75
2022/09/07 00:15:25;;;;;;;10.77;9.15;;;;;;;14.40;87.66;100593.84;5044310;28;20049;-75
2022/09/07 00:17:51;;;;;;;12.98;10.57;;;;;;;14.39;87.60;100585.91;5041122;28;20557;-75
2022/09/07 00:20:16;;;;;;;11.90;10.10;;;;;;;14.37;87.75;100583.28;5044034;28;20083;-75
2022/09/07 00:22:41;;;;;;;14.82;10.15;;;;;;;14.34;87.75;100583.34;5037497;28;20423;-75
2022/09/07 00:25:07;;;;;;;11.15;9.82;;;;;;;14.34;87.87;100582.47;5042569;28;20491;-75
2022/09/07 00:27:32;;;;;;;15.77;10.15;;;;;;;14.32;87.97;100574.53;5042461;28;20068;-75
2022/09/07 00:29:58;;;;;;;11.27;9.85;;;;;;;14.33;87.68;100586.03;5043720;28;20098;-75
2022/09/07 00:32:23;;;;;;;13.52;9.45;;;;;;;14.32;87.87;100577.19;5040397;28;20033;-75
2022/09/07 00:34:49;;;;;;;14.43;10.05;;;;;;;14.31;87.37;100583.41;5042006;28;20033;-75
2022/09/07 00:37:15;;;;;;;12.85;10.93;;;;;;;14.29;87.88;100579.91;5041709;28;20087;-75
2022/09/07 00:39:40;;;;;;;13.23;10.63;;;;;;;14.24;87.44;100573.81;5042657;28;20029;-75
2022/09/07 00:42:06;;;;;;;10.35;9.27;;;;;;;14.23;87.70;100575.63;5042439;28;20518;-75
2022/09/07 00:44:43;;;;;;;10.68;9.63;;;;;;;14.22;87.57;100570.31;5041522;28;20045;-75
2022/09/07 00:47:18;;;;;;;12.27;10.30;;;;;;;14.18;87.55;100563.34;5038522;28;20566;-74
2022/09/07 00:49:47;;;;;;;11.27;9.50;;;;;;;14.15;87.74;100564.28;5041093;28;20037;-75
2022/09/07 00:52:14;;;;;;;11.57;9.07;;;;;;;14.13;87.76;100562.56;5038465;28;20253;-75
2022/09/07 00:54:45;;;;;;;11.30;9.43;;;;;;;14.13;87.64;100551.94;5040106;28;20037;-75
2022/09/07 00:57:11;;;;;;;10.90;9.15;;;;;;;14.09;87.60;100552.91;5041651;28;20120;-75
2022/09/07 00:59:43;;;;;;;10.43;9.35;;;;;;;14.06;87.82;100552.97;5043086;28;20145;-75
2022/09/07 01:02:11;;;;;;;11.10;9.70;;;;;;;14.02;88.41;100552.16;5037303;28;20042;-75
2022/09/07 01:04:37;;;;;;;12.43;10.80;;;;;;;13.99;88.57;100552.19;5037629;28;20032;-75
2022/09/07 01:07:04;;;;;;;11.60;9.25;;;;;;;13.97;88.45;100544.28;5042235;28;20025;-75
2022/09/07 01:09:30;;;;;;;15.38;9.77;;;;;;;13.97;88.66;100541.63;5040594;28;20087;-75
2022/09/07 01:12:00;;;;;;;12.32;9.25;;;;;;;13.95;88.33;100540.78;5043189;28;20041;-75
2022/09/07 01:14:30;;;;;;;12.45;9.75;;;;;;;13.93;88.24;100539.94;5037963;28;20029;-75
2022/09/07 01:17:16;;;;;;;12.07;9.77;;;;;;;13.93;88.44;100533.75;5039977;28;20095;-74
2022/09/07 01:20:15;;;;;;;11.73;9.15;;;;;;;13.92;88.46;100542.63;5039489;28;20046;-75
2022/09/07 01:23:19;;;;;;;11.10;9.70;;;;;;;13.90;88.34;100537.34;5042302;28;20052;-75
2022/09/07 01:26:13;;;;;;;11.82;9.02;;;;;;;13.87;88.05;100553.34;5038389;28;20073;-75
2022/09/07 01:28:39;;;;;;;11.20;8.98;;;;;;;13.85;87.98;100548.97;5020463;28;20034;-75
2022/09/07 01:31:32;;;;;;;11.18;9.40;;;;;;;13.84;88.07;100553.41;5042217;28;20040;-75
2022/09/07 01:34:20;;;;;;;12.57;9.00;;;;;;;13.82;88.29;100549.88;5041753;28;20506;-75
2022/09/07 01:37:00;;;;;;;12.13;9.57;;;;;;;13.79;88.42;100542.88;5041493;28;20044;-75
2022/09/07 01:39:35;;;;;;;10.65;9.50;;;;;;;13.77;88.58;100543.78;5038814;28;20124;-75
2022/09/07 01:42:07;;;;;;;15.57;10.25;;;;;;;13.74;89.47;100535.91;5038541;28;20403;-75
2022/09/07 01:44:38;;;;;;;;;;;;;;;13.71;90.46;100530.66;5037984;28;20041;-75
2022/09/07 01:47:08;;;;;;;10.80;9.52;;;;;;;13.72;89.35;100527.97;5040539;28;19913;-75
2022/09/07 01:49:49;;;;;;;13.48;9.98;;;;;;;13.72;89.58;100535.06;5042703;28;20498;-75
2022/09/07 01:52:36;;;;;;;13.48;9.65;;;;;;;13.72;89.54;100525.31;5042761;28;20412;-75
2022/09/07 01:55:16;;;;;;;14.40;10.18;;;;;;;13.70;89.43;100531.53;5032458;28;20053;-75
2022/09/07 01:57:46;;;;;;;13.68;10.02;;;;;;;13.69;89.65;100521.84;5039478;28;20037;-75
2022/09/07 02:00:15;;;;;;;10.77;9.68;;;;;;;13.66;89.75;100525.44;5039552;28;20640;-75
2022/09/07 02:02:49;;;;;;;9.73;8.50;;;;;;;13.67;89.87;100529.81;5042461;28;20045;-75
2022/09/07 02:05:24;;;;;;;10.55;9.35;;;;;;;13.69;89.38;100524.50;5037830;28;20171;-75
2022/09/07 02:07:57;;;;;;;15.65;9.95;;;;;;;13.70;89.48;100521.84;5039917;28;20030;-75
2022/09/07 02:10:34;;;;;;;10.48;9.35;;;;;;;13.72;89.45;100511.19;5036893;28;20041;-75
2022/09/07 02:13:07;;;;;;;11.45;9.52;;;;;;;13.72;89.27;100514.69;5039771;28;20087;-75
2022/09/07 02:15:44;;;;;;;10.60;9.50;;;;;;;13.69;89.47;100517.41;5036846;28;20069;-75
2022/09/07 02:18:13;;;;;;;11.30;9.60;;;;;;;13.69;89.43;100517.41;5033336;28;20037;-75
2022/09/07 02:20:40;;;;;;;13.50;9.20;;;;;;;13.70;89.11;100518.28;5042838;28;20033;-75
2022/09/07 02:23:12;;;;;;;11.27;10.07;;;;;;;13.69;89.11;100525.38;5041550;28;20090;-75
2022/09/07 02:25:44;;;;;;;12.55;9.60;;;;;;;13.68;89.19;100525.41;5040624;28;20041;-75
2022/09/07 02:28:15;;;;;;;13.38;9.27;;;;;;;13.68;89.08;100528.94;5034560;28;20093;-75
2022/09/07 02:30:40;;;;;;;11.88;9.75;;;;;;;13.68;89.19;100533.38;5040087;28;20064;-75
2022/09/07 02:33:06;;;;;;;11.15;9.80;;;;;;;13.64;88.95;100531.69;5040755;28;20068;-75
2022/09/07 02:35:31;;;;;;;11.00;9.45;;;;;;;13.62;89.57;100529.03;5039971;28;20079;-75
2022/09/07 02:38:02;;;;;;;10.88;9.88;;;;;;;13.61;89.47;100526.44;5042339;28;20505;-75
2022/09/07 02:40:27;;;;;;;13.10;10.60;;;;;;;13.58;89.83;100525.56;5036237;28;20492;-75
2022/09/07 02:42:53;;;;;;;14.57;10.05;;;;;;;13.56;90.22;100519.41;5041234;28;20045;-75
2022/09/07 02:45:18;;;;;;;11.00;9.88;;;;;;;13.53;90.14;100513.31;5040933;28;20087;-75
2022/09/07 02:48:14;;;;;;;14.18;9.35;;;;;;;13.52;90.78;100512.44;5039986;28;20244;-75
2022/09/07 02:51:08;;;;;;;12.95;8.95;;;;;;;13.51;91.17;100508.03;5035954;28;20106;-75
2022/09/07 02:53:37;;;;;;;12.50;9.85;;;;;;;13.50;91.17;100514.25;5037571;28;20503;-75
2022/09/07 02:56:11;;;;;;;11.05;9.48;;;;;;;13.47;91.14;100509.00;5041295;28;20060;-75
2022/09/07 02:58:48;;;;;;;12.23;9.93;;;;;;;13.45;91.49;100509.94;5045526;28;20029;-75
2022/09/07 03:01:38;;;;;;;11.68;9.98;;;;;;;13.46;91.82;100512.53;5040718;28;20117;-75
2022/09/07 03:04:32;;;;;;;13.82;11.02;;;;;;;13.46;91.90;100503.72;5042892;28;20567;-75
2022/09/07 03:07:05;;;;;;;15.35;10.55;;;;;;;13.46;91.67;100507.25;5023387;28;20044;-75
2022/09/07 03:09:34;;;;;;;;;;;;;;;13.44;92.34;100505.50;5046174;28;20047;-75
2022/09/07 03:12:04;;;;;;;14.55;11.48;;;;;;;13.46;91.88;100503.72;5040398;28;19913;-75
2022/09/07 03:14:32;;;;;;;23.45;12.93;;;;;;;13.44;91.87;100503.75;5041444;28;20049;-75
2022/09/07 03:16:58;;;;;;;17.02;14.35;;;;;;;13.44;91.96;100503.75;5045250;28;20055;-75
2022/09/07 03:19:23;;;;;;;19.20;15.73;;;;;;;13.45;92.50;100509.94;5041991;28;20120;-75
2022/09/07 03:21:48;;;;;;;21.58;16.20;;;;;;;13.45;92.72;100513.44;5045322;28;20091;-75
2022/09/07 03:24:13;;;;;;;18.33;13.60;;;;;;;13.42;92.54;100510.88;5042982;28;20120;-75
2022/09/07 03:26:43;;;;;;;18.10;11.50;;;;;;;13.32;93.05;100509.28;5042964;28;20041;-75
2022/09/07 03:29:08;;;;;;;17.55;12.02;;;;;;;13.15;95.34;100507.78;5042886;28;20041;-75
2022/09/07 03:31:34;;;;;;;14.38;12.88;;;;;;;13.06;96.10;100513.22;5044748;28;20044;-75
2022/09/07 03:34:00;;;;;;;17.80;15.82;;;;;;;13.08;96.16;100511.41;5041863;28;20034;-75
2022/09/07 03:36:25;;;;;;;21.75;13.93;;;;;;;13.12;95.89;100513.09;5044731;28;20036;-75
2022/09/07 03:38:50;;;;;;;17.35;13.88;;;;;;;13.12;95.67;100515.75;5037174;28;20036;-75
2022/09/07 03:41:16;;;;;;;19.83;16.48;;;;;;;13.16;95.80;100517.47;5043126;28;20045;-74
2022/09/07 03:43:41;;;;;;;16.83;13.35;;;;;;;13.19;95.30;100518.31;5042971;28;20045;-75
2022/09/07 03:46:09;;;;;;;22.90;17.00;;;;;;;13.25;95.11;100516.41;5044659;28;20081;-74
2022/09/07 03:48:36;;;;;;;21.40;17.08;;;;;;;13.28;94.93;100512.88;5038646;28;20128;-74
2022/09/07 03:51:04;;;;;;;21.33;16.67;;;;;;;13.29;95.16;100514.63;5044845;28;20485;-75
2022/09/07 03:53:35;;;;;;;17.35;15.55;;;;;;;13.30;95.12;100513.72;5042819;28;20116;-75
2022/09/07 03:56:16;;;;;;;20.88;17.13;;;;;;;13.31;95.38;100511.06;5042106;28;20091;-75
2022/09/07 03:58:42;;;;;;;20.45;17.70;;;;;;;13.35;95.26;100514.53;5041403;28;20037;-74
2022/09/07 04:01:10;;;;;;;25.27;19.38;;;;;;;13.37;95.20;100518.03;5034438;28;20610;-74
2022/09/07 04:03:36;;;;;;;22.10;17.60;;;;;;;13.40;95.44;100517.97;5042561;28;20151;-75
2022/09/07 04:06:03;;;;;;;16.88;15.15;;;;;;;13.43;95.27;100512.59;5036244;28;20510;-75
2022/09/07 04:08:31;;;;;;;16.85;13.18;;;;;;;13.42;95.39;100512.66;5043275;28;20036;-75
2022/09/07 04:10:58;;;;;;;16.75;15.02;;;;;;;13.36;95.93;100505.66;5043105;28;20483;-74
2022/09/07 04:13:25;;;;;;;18.55;15.18;;;;;;;13.36;95.99;100500.34;5041457;28;20134;-75
2022/09/07 04:15:50;;;;;;;15.77;14.15;;;;;;;13.37;95.81;100507.41;5040011;28;20042;-74
2022/09/07 04:18:16;;;;;;;14.55;13.05;;;;;;;13.35;95.70;100503.91;5041214;28;20041;-75
2022/09/07 04:20:42;;;;;;;20.65;14.68;;;;;;;13.34;95.79;100503.03;5039795;28;20064;-75
2022/09/07 04:23:07;;;;;;;21.65;16.10;;;;;;;13.26;96.49;100504.97;5037915;28;20507;-75
2022/09/07 04:25:33;;;;;;;19.63;16.92;;;;;;;13.25;96.78;100507.59;5036033;28;20036;-75
2022/09/07 04:27:59;;;;;;;17.30;15.60;;;;;;;13.30;96.67;100500.47;5036958;28;20045;-74
2022/09/07 04:30:24;;;;;;;22.88;17.13;;;;;;;13.36;96.22;100503.91;5044017;28;20453;-74
2022/09/07 04:32:50;;;;;;;18.13;16.20;;;;;;;13.42;96.01;100497.59;5039490;28;20549;-74
2022/09/07 04:35:15;;;;;;;17.63;13.23;;;;;;;13.45;95.35;100494.91;5035548;28;20045;-74
2022/09/07 04:37:40;;;;;;;14.85;13.35;;;;;;;13.45;94.69;100496.69;5042458;28;20045;-74
2022/09/07 04:40:06;;;;;;;17.90;14.75;;;;;;;13.41;94.92;100493.19;5040155;28;20033;-74
2022/09/07 04:42:32;;;;;;;18.10;15.50;;;;;;;13.42;94.79;100494.97;5040524;28;20037;-74
2022/09/07 04:44:57;;;;;;;15.13;13.63;;;;;;;13.46;94.22;100496.63;5030014;28;20046;-75
2022/09/07 04:47:22;;;;;;;15.73;13.45;;;;;;;13.48;94.58;100502.78;5039067;28;20041;-74
2022/09/07 04:49:51;;;;;;;17.67;14.93;;;;;;;13.58;93.67;100490.25;5035981;28;20040;-74
2022/09/07 04:52:17;;;;;;;19.90;15.23;;;;;;;13.66;93.71;100488.31;5043381;28;20505;-74
2022/09/07 04:54:46;;;;;;;14.38;12.82;;;;;;;13.71;93.63;100485.56;5039227;28;20046;-75
2022/09/07 04:57:12;;;;;;;14.57;12.85;;;;;;;13.75;93.37;100481.94;5033361;28;20037;-74
2022/09/07 04:59:37;;;;;;;15.77;12.82;;;;;;;13.78;93.60;100482.78;5043344;28;20039;-74
2022/09/07 05:02:02;;;;;;;20.83;17.50;;;;;;;13.87;93.39;100483.50;5039336;28;20148;-75
2022/09/07 05:04:28;;;;;;;26.13;17.23;;;;;;;13.89;93.76;100477.25;5036657;28;20125;-74
2022/09/07 05:06:53;;;;;;;20.40;17.55;;;;;;;13.98;93.90;100490.31;5041901;28;20411;-75
2022/09/07 05:09:19;;;;;;;23.80;16.58;;;;;;;14.07;92.92;100483.94;5042332;28;20471;-75
2022/09/07 05:11:44;;;;;;;20.98;18.13;;;;;;;14.17;93.15;100479.28;5040307;28;20045;-74
2022/09/07 05:14:10;;;;;;;18.20;14.73;;;;;;;14.27;92.54;100485.28;5043291;28;20041;-74
2022/09/07 05:16:35;;;;;;;18.75;14.70;;;;;;;14.25;92.01;100477.34;5038468;28;20044;-74
2022/09/07 05:19:03;;;;;;;16.25;13.85;;;;;;;14.28;92.70;100481.72;5038394;28;20099;-74
2022/09/07 05:21:33;;;;;;;17.55;14.82;;;;;;;14.35;92.52;100478.88;5037949;28;20396;-74
2022/09/07 05:23:59;;;;;;;15.38;13.02;;;;;;;14.38;92.34;100483.25;5039472;28;20168;-74
2022/09/07 05:26:27;;;;;;;15.65;14.02;;;;;;;14.38;92.89;100481.50;5035223;28;20041;-74
2022/09/07 05:28:53;;;;;;;16.48;13.52;;;;;;;14.45;92.81;100464.50;5042860;28;20037;-75
2022/09/07 05:31:20;;;;;;;21.42;15.60;;;;;;;14.59;92.42;100466.00;5037734;28;20029;-74
2022/09/07 05:33:47;;;;;;;21.83;17.65;;;;;;;14.74;91.50;100465.63;5039371;28;20055;-74
2022/09/07 05:36:13;;;;;;;20.92;17.48;;;;;;;14.83;91.21;100470.72;5042809;28;20033;-74
2022/09/07 05:38:38;;;;;;;28.52;24.85;;;;;;;14.96;90.37;100476.63;5030244;28;20110;-75
2022/09/07 05:41:20;;;;;;;19.48;17.20;;;;;;;15.05;89.77;100475.50;5031005;28;20041;-75
2022/09/07 05:43:45;;;;;;;17.20;15.38;;;;;;;15.06;89.92;100477.22;5031281;28;20029;-74
2022/09/07 05:46:11;;;;;;;20.52;18.52;;;;;;;15.17;89.87;100483.16;5030280;28;20040;-74
2022/09/07 05:48:37;;;;;;;25.60;19.10;;;;;;;15.31;89.10;100488.97;5028834;28;20033;-75
2022/09/07 05:51:04;;;;;;;22.15;19.77;;;;;;;15.46;88.56;100485.06;5033348;28;20550;-74
2022/09/07 05:53:30;;;;;;;20.55;18.45;;;;;;;15.59;87.97;100479.38;5029590;28;20545;-74
2022/09/07 05:55:59;;;;;;;20.15;18.15;;;;;;;15.71;87.66;100476.41;5040099;28;20120;-75
2022/09/07 05:58:26;;;;;;;21.33;18.52;;;;;;;15.78;87.27;100478.88;5042596;28;20037;-75
2022/09/07 06:00:54;;;;;;;22.10;18.23;;;;;;;15.86;86.95;100480.44;5039314;28;20484;-75
2022/09/07 06:03:20;;;;;;;19.08;17.27;;;;;;;15.93;87.22;100487.34;5042080;28;20496;-75
2022/09/07 06:05:45;;;;;;;16.95;15.15;;;;;;;15.99;86.74;100487.16;5027906;28;20056;-74
2022/09/07 06:08:10;;;;;;;15.65;14.00;;;;;;;16.02;86.88;100480.88;5030422;28;20034;-74
2022/09/07 06:10:36;;;;;;;15.35;13.50;;;;;;;16.06;87.01;100475.41;5028347;28;20095;-75
2022/09/07 06:13:03;;;;;;;18.65;14.90;;;;;;;16.15;86.95;100471.59;5022884;28;20034;-75
2022/09/07 06:15:30;;;;;;;17.65;14.63;;;;;;;16.21;86.78;100466.94;5030450;28;20044;-74
2022/09/07 06:17:55;;;;;;;16.90;15.10;;;;;;;16.30;86.80;100467.59;5028582;28;20437;-74
2022/09/07 06:20:20;;;;;;;19.20;17.20;;;;;;;16.45;86.50;100464.44;5041426;28;20029;-75
2022/09/07 06:22:46;;;;;;;18.15;16.25;;;;;;;16.54;86.44;100458.84;5043502;28;20435;-75
2022/09/07 06:25:11;;;;;;;16.98;15.02;;;;;;;16.61;86.19;100455.06;5040089;28;20037;-74
2022/09/07 06:27:37;;;;;;;19.83;17.77;;;;;;;16.71;85.76;100454.75;5038136;28;20074;-75
2022/09/07 06:30:03;;;;;;;24.50;21.95;;;;;;;16.80;85.97;100434.03;5041647;28;20063;-75
2022/09/07 06:32:28;;;;;;;26.55;21.63;;;;;;;16.92;85.63;100439.88;5042941;28;20048;-74
2022/09/07 06:34:54;;;;;;;21.00;18.92;;;;;;;17.00;85.63;100432.47;5044231;28;20054;-75
2022/09/07 06:37:19;;;;;;;26.02;22.10;;;;;;;17.12;85.38;100431.22;5045791;28;20456;-75
2022/09/07 06:39:44;;;;;;;22.98;20.50;;;;;;;17.29;84.32;100431.47;5043070;28;20407;-75
2022/09/07 06:42:10;;;;;;;21.23;18.35;;;;;;;17.38;84.67;100430.28;5038792;28;20404;-75
2022/09/07 06:44:41;;;;;;;30.17;24.98;;;;;;;17.49;84.66;100438.75;5043060;28;20028;-75
2022/09/07 06:47:06;;;;;;;24.35;21.48;;;;;;;17.62;83.68;100444.53;5042424;28;20529;-75
2022/09/07 06:49:32;;;;;;;25.27;22.77;;;;;;;17.74;83.77;100447.63;5040538;28;20052;-75
2022/09/07 06:51:57;;;;;;;20.85;18.75;;;;;;;17.87;82.95;100445.41;5039460;28;20036;-75
2022/09/07 06:54:22;;;;;;;20.60;18.40;;;;;;;17.93;83.22;100450.50;5044796;28;20063;-74
2022/09/07 06:56:48;;;;;;;25.27;22.33;;;;;;;17.98;83.32;100446.78;5041759;28;20068;-75
2022/09/07 06:59:13;;;;;;;26.02;22.38;;;;;;;18.09;82.92;100444.56;5044769;28;20072;-74
2022/09/07 07:01:38;;;;;;;29.75;23.27;;;;;;;18.23;82.08;100436.88;5044279;28;20053;-75
2022/09/07 07:04:03;;;;;;;22.88;20.50;;;;;;;18.34;81.77;100437.34;5043805;28;20077;-75
2022/09/07 07:06:38;;;;;;;25.20;22.63;;;;;;;18.52;81.56;100446.44;5036594;28;20072;-75
2022/09/07 07:09:05;;;;;;;17.85;15.95;;;;;;;18.62;80.96;100436.22;5039943;28;20132;-75
2022/09/07 07:11:30;;;;;;;23.83;16.73;;;;;;;18.72;80.70;100429.56;5040273;28;20067;-75
2022/09/07 07:13:56;;;;;;;25.33;22.83;;;;;;;18.85;80.50;100437.13;5042225;28;20024;-75
2022/09/07 07:16:22;;;;;;;26.85;24.10;;;;;;;19.00;80.28;100437.34;5045105;28;20052;-75
2022/09/07 07:18:51;;;;;;;25.65;22.60;;;;;;;19.13;79.65;100440.34;5035199;28;20037;-74
2022/09/07 07:21:17;;;;;;;21.08;18.88;;;;;;;19.26;78.96;100441.56;5039725;28;20504;-75
2022/09/07 07:23:42;;;;;;;16.13;14.60;;;;;;;19.36;78.71;100435.78;5041772;28;20057;-75
2022/09/07 07:26:13;;;;;;;24.85;20.65;;;;;;;19.44;78.66;100433.66;5035200;28;20507;-75
2022/09/07 07:28:46;;;;;;;23.30;20.25;;;;;;;19.55;78.44;100430.53;5046521;28;20036;-75
2022/09/07 07:31:13;;;;;;;16.58;14.77;;;;;;;19.58;77.70;100425.03;5039833;28;20519;-75
2022/09/07 07:33:39;;;;;;;17.25;14.30;;;;;;;19.58;77.70;100419.66;5043476;28;20041;-75
2022/09/07 07:36:17;;;;;;;17.52;15.52;;;;;;;19.61;78.09;100420.38;5043821;28;20044;-75
2022/09/07 07:38:46;;;;;;;22.05;19.75;;;;;;;19.80;77.55;100415.09;5039227;28;20067;-75
2022/09/07 07:41:12;;;;;;;23.80;21.50;;;;;;;20.04;77.45;100413.09;5039484;28;20113;-75
2022/09/07 07:43:38;;;;;;;24.02;21.42;;;;;;;20.38;76.45;100414.13;5043941;28;20041;-75
2022/09/07 07:46:04;;;;;;;24.13;21.73;;;;;;;20.63;74.42;100411.16;5045192;28;20025;-75
2022/09/07 07:48:31;;;;;;;17.23;15.43;;;;;;;20.89;73.92;100408.97;5038183;28;20120;-75
2022/09/07 07:51:01;;;;;;;22.25;16.88;;;;;;;21.01;72.63;100401.19;5044139;28;20363;-75
2022/09/07 07:53:27;;;;;;;25.40;22.65;;;;;;;21.26;72.99;100397.22;5043382;28;20040;-75
2022/09/07 07:55:53;;;;;;;26.80;23.95;;;;;;;21.61;72.41;100395.38;5042099;28;20075;-75
2022/09/07 07:58:19;;;;;;;26.38;24.02;;;;;;;21.92;71.44;100388.28;5045011;28;20056;-75
2022/09/07 08:00:45;;;;;;;20.05;18.35;;;;;;;22.06;70.09;100395.56;5040656;28;20479;-75
2022/09/07 08:03:10;;;;;;;24.27;21.98;;;;;;;22.19;69.21;100388.63;5042130;28;20040;-75
2022/09/07 08:05:36;;;;;;;29.60;26.75;;;;;;;22.33;69.39;100397.72;5043259;28;20025;-75
2022/09/07 08:08:02;;;;;;;26.38;23.85;;;;;;;22.45;69.09;100405.06;5035813;28;20028;-75
2022/09/07 08:10:28;;;;;;;26.08;23.52;;;;;;;22.55;68.84;100403.56;5041351;28;20033;-75
2022/09/07 08:12:54;;;;;;;27.80;25.00;;;;;;;22.60;68.64;100404.19;5036907;28;20037;-75
2022/09/07 08:15:20;;;;;;;23.55;21.25;;;;;;;22.66;68.36;100395.78;5039247;28;20083;-75
2022/09/07 08:17:48;;;;;;;29.27;26.17;;;;;;;22.68;68.56;100404.59;5042786;28;20048;-75
2022/09/07 08:20:15;;;;;;;25.48;23.00;;;;;;;22.70;68.21;100405.38;5041967;28;20041;-75
2022/09/07 08:22:40;;;;;;;28.90;26.20;;;;;;;22.72;67.78;100397.22;5040336;28;20037;-75
2022/09/07 08:25:07;;;;;;;28.38;25.58;;;;;;;22.78;67.81;100399.53;5035568;28;20029;-75
2022/09/07 08:27:33;;;;;;;29.85;26.95;;;;;;;22.89;67.71;100405.16;5038076;28;20037;-75
2022/09/07 08:29:59;;;;;;;19.38;17.60;;;;;;;22.80;67.58;100405.72;5041865;28;20043;-75
2022/09/07 08:32:25;;;;;;;17.30;15.52;;;;;;;22.76;67.15;100412.22;5040572;28;20495;-75
2022/09/07 08:34:50;;;;;;;21.98;19.55;;;;;;;22.83;67.06;100408.22;5039563;28;20029;-75
2022/09/07 08:37:15;;;;;;;17.48;15.95;;;;;;;23.02;66.46;100408.00;5042993;28;20380;-75
2022/09/07 08:39:41;;;;;;;25.55;22.95;;;;;;;23.10;66.74;100400.34;5040684;28;20449;-74
2022/09/07 08:42:14;;;;;;;23.30;21.00;;;;;;;23.41;66.22;100403.84;5028674;28;20561;-75
2022/09/07 08:45:02;;;;;;;22.92;20.92;;;;;;;23.60;64.23;100395.50;5044283;28;20120;-75
2022/09/07 08:47:36;;;;;;;23.42;20.98;;;;;;;23.91;64.40;100393.59;5042014;28;20451;-75
2022/09/07 08:50:42;;;;;;;21.00;18.95;;;;;;;24.30;62.26;100386.59;5037266;28;20506;-75
2022/09/07 08:53:13;;;;;;;26.70;24.20;;;;;;;24.70;62.21;100384.81;5039619;28;20059;-74
2022/09/07 08:55:51;;;;;;;26.45;24.17;;;;;;;25.06;60.78;100380.59;5039693;28;20037;-75
2022/09/07 08:58:22;;;;;;;27.10;24.23;;;;;;;25.40;59.54;100380.97;5039050;28;20041;-75
2022/09/07 09:00:48;;;;;;;21.73;19.60;;;;;;;25.67;59.07;100380.84;5040829;28;20480;-75
2022/09/07 09:03:34;;;;;;;22.02;20.20;;;;;;;25.94;56.91;100378.03;5033332;28;20466;-75
2022/09/07 09:06:21;;;;;;;17.48;15.88;;;;;;;25.93;57.56;100370.88;5036650;28;20520;-75
2022/09/07 09:08:57;;;;;;;19.05;17.13;;;;;;;26.11;56.71;100377.66;5039295;28;20041;-75
2022/09/07 09:11:48;;;;;;;21.88;19.95;;;;;;;26.21;56.46;100370.59;5034396;28;20115;-75
2022/09/07 09:14:28;;;;;;;20.90;19.20;;;;;;;26.34;55.69;100369.69;5028889;28;20037;-75
2022/09/07 09:17:02;;;;;;;20.27;18.27;;;;;;;26.46;55.69;100368.75;5038588;28;20072;-75
2022/09/07 09:19:44;;;;;;;23.17;20.83;;;;;;;26.54;55.14;100363.69;5041950;28;20033;-75
2022/09/07 09:22:22;;;;;;;31.55;28.33;;;;;;;26.68;56.41;100362.63;5055195;28;20041;-75
2022/09/07 09:24:53;;;;;;;31.85;27.00;;;;;;;26.80;55.44;100371.63;5042950;28;20071;-75
2022/09/07 09:27:18;;;;;;;30.10;26.98;;;;;;;26.90;55.20;100367.25;5035134;28;20507;-75
2022/09/07 09:29:43;;;;;;;30.17;27.27;;;;;;;27.04;54.89;100356.22;5042162;28;20036;-75
2022/09/07 09:32:35;;;;;;;30.85;27.48;;;;;;;27.13;53.57;100362.75;5041363;28;20492;-75
2022/09/07 09:35:23;;;;;;;16.80;15.40;;;;;;;27.06;54.02;100362.38;5020507;28;20046;-75
2022/09/07 09:37:48;;;;;;;19.85;17.88;;;;;;;26.98;54.01;100353.97;5034062;28;20415;-75
2022/09/07 09:40:23;;;;;;;22.17;20.08;;;;;;;27.17;53.90;100353.44;5040397;28;20035;-75
2022/09/07 09:43:01;;;;;;;17.98;16.58;;;;;;;27.17;53.17;100353.44;5034215;28;20124;-75
2022/09/07 09:45:31;;;;;;;23.85;21.83;;;;;;;27.29;53.76;100344.34;5039292;28;20108;-75
2022/09/07 09:47:59;;;;;;;22.85;20.85;;;;;;;27.36;53.04;100352.00;5040527;28;20045;-75
2022/09/07 09:50:30;;;;;;;21.45;19.65;;;;;;;27.49;52.14;100342.75;5039911;28;20025;-75
2022/09/07 09:52:57;;;;;;;22.30;20.60;;;;;;;27.42;52.59;100346.06;5032859;28;20040;-75
2022/09/07 09:55:25;;;;;;;23.65;21.80;;;;;;;27.47;51.96;100346.56;5042474;28;20037;-75
2022/09/07 09:57:57;;;;;;;22.98;21.05;;;;;;;27.57;51.57;100338.59;5036361;28;20065;-75
2022/09/07 10:00:23;;;;;;;27.23;24.95;;;;;;;27.65;52.15;100339.69;5041094;28;20438;-75
2022/09/07 10:03:13;;;;;;;29.13;26.52;;;;;;;27.72;51.55;100342.78;5040165;28;20045;-75
2022/09/07 10:05:44;;;;;;;21.58;19.80;;;;;;;27.79;52.02;100343.13;5041399;28;20044;-75
2022/09/07 10:08:30;;;;;;;25.63;23.33;;;;;;;27.85;51.21;100332.69;5041375;28;20147;-75
2022/09/07 10:10:58;;;;;;;23.35;21.23;;;;;;;27.94;50.68;100325.63;5039037;28;20136;-75
2022/09/07 10:13:51;;;;;;;25.35;23.20;;;;;;;28.01;50.27;100334.09;5031686;28;20033;-75
2022/09/07 10:16:17;;;;;;;21.02;19.33;;;;;;;28.10;50.97;100333.34;5037305;28;20038;-75
2022/09/07 10:18:57;;;;;;;23.55;21.38;;;;;;;28.31;49.90;100333.44;5041094;28;20548;-76
2022/09/07 10:21:26;;;;;;;19.50;17.75;;;;;;;28.47;49.75;100328.47;5036109;28;20033;-75
2022/09/07 10:24:11;;;;;;;19.10;17.58;;;;;;;28.55;49.42;100331.38;5041682;28;20029;-75
2022/09/07 10:26:37;;;;;;;28.08;26.25;;;;;;;28.45;47.85;100338.56;5036980;28;20102;-76
2022/09/07 10:29:11;;;;;;;19.00;17.35;;;;;;;28.28;48.50;100336.41;5036135;28;20041;-75
2022/09/07 10:31:47;;;;;;;22.58;20.75;;;;;;;28.38;49.12;100338.22;5038851;28;20033;-76
2022/09/07 10:34:37;;;;;;;18.25;16.70;;;;;;;28.56;48.53;100337.69;5037951;28;20112;-75
2022/09/07 10:37:08;;;;;;;22.98;20.95;;;;;;;28.75;48.39;100331.56;5038197;28;20037;-75
2022/09/07 10:39:56;;;;;;;;;;;;;;;28.62;47.49;100329.03;5039849;28;20052;-76
2022/09/07 10:42:28;;;;;;;22.17;20.27;;;;;;;28.56;48.23;100327.69;5040083;28;20387;-76
2022/09/07 10:45:15;;;;;;;18.73;17.13;;;;;;;28.69;47.90;100332.94;5034262;28;20037;-75
2022/09/07 10:48:06;;;;;;;23.65;21.65;;;;;;;28.78;48.04;100331.28;5035533;28;20079;-76
2022/09/07 10:50:38;;;;;;;22.33;20.55;;;;;;;28.92;48.38;100322.78;5032905;28;20124;-76
2022/09/07 10:53:24;;;;;;;24.45;22.35;;;;;;;29.06;47.52;100329.81;5039361;28;20050;-76
2022/09/07 10:56:08;;;;;;;27.95;25.85;;;;;;;29.29;46.65;100322.31;5006751;28;20051;-76
2022/09/07 10:58:55;;;;;;;25.35;23.35;;;;;;;29.49;46.58;100320.56;5026328;28;20286;-76
2022/09/07 11:01:39;;;;;;;23.73;21.83;;;;;;;29.58;45.23;100314.34;5030790;28;20038;-76
2022/09/07 11:04:33;;;;;;;20.38;18.77;;;;;;;29.53;44.92;100311.16;5036396;28;20041;-76
2022/09/07 11:07:19;;;;;;;22.88;21.13;;;;;;;29.61;45.78;100315.91;5035647;28;20041;-76
2022/09/07 11:09:53;;;;;;;25.90;23.60;;;;;;;29.64;46.07;100316.53;5038826;28;20487;-76
2022/09/07 11:12:32;;;;;;;28.15;26.02;;;;;;;29.78;44.56;100317.13;5034416;28;20116;-76
2022/09/07 11:15:08;;;;;;;16.73;15.57;;;;;;;29.54;44.87;100307.44;5027529;28;20068;-76
2022/09/07 11:17:42;;;;;;;23.70;21.80;;;;;;;29.77;44.64;100312.72;5030493;28;20127;-76
2022/09/07 11:20:25;;;;;;;24.17;22.45;;;;;;;29.97;44.55;100311.72;5030981;28;20033;-76
2022/09/07 11:23:06;;;;;;;24.77;22.88;;;;;;;30.26;44.10;100305.50;5030761;28;20046;-76
2022/09/07 11:25:40;;;;;;;22.42;20.58;;;;;;;30.36;43.85;100304.50;5031153;28;20072;-76
2022/09/07 11:28:16;;;;;;;19.90;18.35;;;;;;;30.58;43.24;100307.97;5038005;28;20045;-76